sensor_id;sensor_type;location;lat;lon;timestamp;P1;durP1;ratioP1;P2;durP2;ratioP2
9737;SDS011;4908;47.446;13.900;2023-07-13T00:01:30;2.57;;;2.37;;
9737;SDS011;4908;47.446;13.900;2023-07-13T00:03:57;2.83;;;2.63;;
9737;SDS011;4908;47.446;13.900;2023-07-13T00:06:24;2.60;;;2.50;;
9737;SDS011;4908;47.446;13.900;2023-07-13T00:08:57;2.97;;;2.77;;
9737;SDS011;4908;47.446;13.900;2023-07-13T00:11:26;2.20;;;2.10;;
9737;SDS011;4908;47.446;13.900;2023-07-13T00:13:53;2.70;;;2.40;;
9737;SDS011;4908;47.446;13.900;2023-07-13T00:16:20;2.30;;;2.17;;
9737;SDS011;4908;47.446;13.900;2023-07-13T00:18:47;2.40;;;2.30;;
9737;SDS011;4908;47.446;13.900;2023-07-13T00:21:13;2.80;;;2.43;;
9737;SDS011;4908;47.446;13.900;2023-07-13T00:23:40;2.10;;;2.00;;
9737;SDS011;4908;47.446;13.900;2023-07-13T00:26:08;2.00;;;1.90;;
9737;SDS011;4908;47.446;13.900;2023-07-13T00:28:38;2.97;;;1.87;;
9737;SDS011;4908;47.446;13.900;2023-07-13T00:31:07;2.03;;;1.93;;
9737;SDS011;4908;47.446;13.900;2023-07-13T00:33:34;1.97;;;1.87;;
9737;SDS011;4908;47.446;13.900;2023-07-13T00:36:02;1.67;;;1.67;;
9737;SDS011;4908;47.446;13.900;2023-07-13T00:38:29;1.90;;;1.80;;
9737;SDS011;4908;47.446;13.900;2023-07-13T00:40:56;2.60;;;2.20;;
9737;SDS011;4908;47.446;13.900;2023-07-13T00:43:26;2.43;;;2.03;;
9737;SDS011;4908;47.446;13.900;2023-07-13T00:46:13;2.53;;;2.43;;
9737;SDS011;4908;47.446;13.900;2023-07-13T00:48:42;2.90;;;2.43;;
9737;SDS011;4908;47.446;13.900;2023-07-13T00:51:12;3.53;;;3.33;;
9737;SDS011;4908;47.446;13.900;2023-07-13T00:53:42;3.10;;;2.77;;
9737;SDS011;4908;47.446;13.900;2023-07-13T00:56:09;4.70;;;3.20;;
9737;SDS011;4908;47.446;13.900;2023-07-13T00:58:36;3.00;;;2.70;;
9737;SDS011;4908;47.446;13.900;2023-07-13T01:01:04;2.40;;;2.20;;
9737;SDS011;4908;47.446;13.900;2023-07-13T01:03:32;2.20;;;2.00;;
9737;SDS011;4908;47.446;13.900;2023-07-13T01:06:01;1.93;;;1.83;;
9737;SDS011;4908;47.446;13.900;2023-07-13T01:08:29;2.03;;;1.93;;
9737;SDS011;4908;47.446;13.900;2023-07-13T01:10:56;1.57;;;1.57;;
9737;SDS011;4908;47.446;13.900;2023-07-13T01:13:24;2.10;;;1.60;;
9737;SDS011;4908;47.446;13.900;2023-07-13T01:15:52;1.70;;;1.60;;
9737;SDS011;4908;47.446;13.900;2023-07-13T01:18:21;1.70;;;1.67;;
9737;SDS011;4908;47.446;13.900;2023-07-13T01:20:53;2.27;;;1.60;;
9737;SDS011;4908;47.446;13.900;2023-07-13T01:23:20;2.63;;;1.60;;
9737;SDS011;4908;47.446;13.900;2023-07-13T01:25:48;2.17;;;1.40;;
9737;SDS011;4908;47.446;13.900;2023-07-13T01:28:15;4.27;;;2.00;;
9737;SDS011;4908;47.446;13.900;2023-07-13T01:30:43;1.70;;;1.30;;
9737;SDS011;4908;47.446;13.900;2023-07-13T01:33:12;1.97;;;1.83;;
9737;SDS011;4908;47.446;13.900;2023-07-13T01:35:40;2.50;;;2.30;;
9737;SDS011;4908;47.446;13.900;2023-07-13T01:38:08;2.10;;;2.00;;
9737;SDS011;4908;47.446;13.900;2023-07-13T01:40:36;3.93;;;2.10;;
9737;SDS011;4908;47.446;13.900;2023-07-13T01:43:04;2.23;;;2.10;;
9737;SDS011;4908;47.446;13.900;2023-07-13T01:45:31;3.13;;;2.10;;
9737;SDS011;4908;47.446;13.900;2023-07-13T01:47:58;1.83;;;1.70;;
9737;SDS011;4908;47.446;13.900;2023-07-13T01:50:26;1.50;;;1.40;;
9737;SDS011;4908;47.446;13.900;2023-07-13T01:52:53;1.43;;;1.33;;
9737;SDS011;4908;47.446;13.900;2023-07-13T01:55:22;1.53;;;1.43;;
9737;SDS011;4908;47.446;13.900;2023-07-13T01:57:48;1.40;;;1.40;;
9737;SDS011;4908;47.446;13.900;2023-07-13T02:00:16;1.50;;;1.50;;
9737;SDS011;4908;47.446;13.900;2023-07-13T02:02:43;2.17;;;2.07;;
9737;SDS011;4908;47.446;13.900;2023-07-13T02:05:10;2.80;;;2.23;;
9737;SDS011;4908;47.446;13.900;2023-07-13T02:07:37;2.30;;;2.10;;
9737;SDS011;4908;47.446;13.900;2023-07-13T02:10:04;2.43;;;2.00;;
9737;SDS011;4908;47.446;13.900;2023-07-13T02:12:33;2.10;;;2.00;;
9737;SDS011;4908;47.446;13.900;2023-07-13T02:15:01;2.20;;;2.10;;
9737;SDS011;4908;47.446;13.900;2023-07-13T02:17:28;2.33;;;2.10;;
9737;SDS011;4908;47.446;13.900;2023-07-13T02:19:55;2.20;;;2.00;;
9737;SDS011;4908;47.446;13.900;2023-07-13T02:22:22;1.93;;;1.80;;
9737;SDS011;4908;47.446;13.900;2023-07-13T02:24:49;3.57;;;2.17;;
9737;SDS011;4908;47.446;13.900;2023-07-13T02:27:16;1.80;;;1.70;;
9737;SDS011;4908;47.446;13.900;2023-07-13T02:29:44;2.13;;;1.63;;
9737;SDS011;4908;47.446;13.900;2023-07-13T02:32:11;2.87;;;2.07;;
9737;SDS011;4908;47.446;13.900;2023-07-13T02:34:38;3.60;;;2.43;;
9737;SDS011;4908;47.446;13.900;2023-07-13T02:37:06;1.87;;;1.73;;
9737;SDS011;4908;47.446;13.900;2023-07-13T02:39:33;2.13;;;1.90;;
9737;SDS011;4908;47.446;13.900;2023-07-13T02:42:00;2.03;;;1.83;;
9737;SDS011;4908;47.446;13.900;2023-07-13T02:44:27;2.13;;;1.60;;
9737;SDS011;4908;47.446;13.900;2023-07-13T02:46:55;1.57;;;1.57;;
9737;SDS011;4908;47.446;13.900;2023-07-13T02:49:22;1.77;;;1.63;;
9737;SDS011;4908;47.446;13.900;2023-07-13T02:51:49;1.60;;;1.50;;
9737;SDS011;4908;47.446;13.900;2023-07-13T02:54:16;2.33;;;1.67;;
9737;SDS011;4908;47.446;13.900;2023-07-13T02:56:43;1.63;;;1.50;;
9737;SDS011;4908;47.446;13.900;2023-07-13T02:59:10;2.50;;;1.77;;
9737;SDS011;4908;47.446;13.900;2023-07-13T03:01:37;1.50;;;1.40;;
9737;SDS011;4908;47.446;13.900;2023-07-13T03:04:05;1.57;;;1.47;;
9737;SDS011;4908;47.446;13.900;2023-07-13T03:06:32;1.50;;;1.40;;
9737;SDS011;4908;47.446;13.900;2023-07-13T03:09:00;1.50;;;1.40;;
9737;SDS011;4908;47.446;13.900;2023-07-13T03:11:27;1.60;;;1.50;;
9737;SDS011;4908;47.446;13.900;2023-07-13T03:13:54;1.87;;;1.20;;
9737;SDS011;4908;47.446;13.900;2023-07-13T03:16:21;1.40;;;1.40;;
9737;SDS011;4908;47.446;13.900;2023-07-13T03:18:48;1.20;;;1.20;;
9737;SDS011;4908;47.446;13.900;2023-07-13T03:21:17;1.47;;;1.37;;
9737;SDS011;4908;47.446;13.900;2023-07-13T03:23:44;1.20;;;1.20;;
9737;SDS011;4908;47.446;13.900;2023-07-13T03:26:12;1.50;;;1.40;;
9737;SDS011;4908;47.446;13.900;2023-07-13T03:28:46;1.70;;;1.27;;
9737;SDS011;4908;47.446;13.900;2023-07-13T03:31:14;1.17;;;1.17;;
9737;SDS011;4908;47.446;13.900;2023-07-13T03:33:42;1.43;;;1.33;;
9737;SDS011;4908;47.446;13.900;2023-07-13T03:36:11;3.10;;;1.90;;
9737;SDS011;4908;47.446;13.900;2023-07-13T03:38:42;2.73;;;1.67;;
9737;SDS011;4908;47.446;13.900;2023-07-13T03:41:09;1.70;;;1.60;;
9737;SDS011;4908;47.446;13.900;2023-07-13T03:43:36;3.20;;;1.63;;
9737;SDS011;4908;47.446;13.900;2023-07-13T03:46:03;1.83;;;1.73;;
9737;SDS011;4908;47.446;13.900;2023-07-13T03:48:29;3.00;;;1.63;;
9737;SDS011;4908;47.446;13.900;2023-07-13T03:50:56;2.90;;;2.00;;
9737;SDS011;4908;47.446;13.900;2023-07-13T03:53:23;2.10;;;1.80;;
9737;SDS011;4908;47.446;13.900;2023-07-13T03:55:51;2.83;;;2.00;;
9737;SDS011;4908;47.446;13.900;2023-07-13T03:58:25;1.77;;;1.67;;
9737;SDS011;4908;47.446;13.900;2023-07-13T04:00:54;1.80;;;1.70;;
9737;SDS011;4908;47.446;13.900;2023-07-13T04:03:21;1.63;;;1.53;;
9737;SDS011;4908;47.446;13.900;2023-07-13T04:05:48;3.07;;;1.50;;
9737;SDS011;4908;47.446;13.900;2023-07-13T04:08:15;2.13;;;1.83;;
9737;SDS011;4908;47.446;13.900;2023-07-13T04:10:42;2.10;;;1.53;;
9737;SDS011;4908;47.446;13.900;2023-07-13T04:13:10;1.60;;;1.50;;
9737;SDS011;4908;47.446;13.900;2023-07-13T04:15:38;2.20;;;1.80;;
9737;SDS011;4908;47.446;13.900;2023-07-13T04:18:05;2.03;;;1.60;;
9737;SDS011;4908;47.446;13.900;2023-07-13T04:20:32;1.60;;;1.50;;
9737;SDS011;4908;47.446;13.900;2023-07-13T04:22:59;1.93;;;1.60;;
9737;SDS011;4908;47.446;13.900;2023-07-13T04:25:26;2.00;;;1.90;;
9737;SDS011;4908;47.446;13.900;2023-07-13T04:27:53;1.63;;;1.53;;
9737;SDS011;4908;47.446;13.900;2023-07-13T04:30:22;2.27;;;1.83;;
9737;SDS011;4908;47.446;13.900;2023-07-13T04:32:50;2.60;;;1.50;;
9737;SDS011;4908;47.446;13.900;2023-07-13T04:35:18;1.93;;;1.80;;
9737;SDS011;4908;47.446;13.900;2023-07-13T04:37:47;2.60;;;1.70;;
9737;SDS011;4908;47.446;13.900;2023-07-13T04:40:15;1.80;;;1.70;;
9737;SDS011;4908;47.446;13.900;2023-07-13T04:42:42;2.10;;;1.50;;
9737;SDS011;4908;47.446;13.900;2023-07-13T04:45:09;1.43;;;1.27;;
9737;SDS011;4908;47.446;13.900;2023-07-13T04:47:37;1.40;;;1.30;;
9737;SDS011;4908;47.446;13.900;2023-07-13T04:50:04;1.33;;;1.27;;
9737;SDS011;4908;47.446;13.900;2023-07-13T04:52:32;1.57;;;1.57;;
9737;SDS011;4908;47.446;13.900;2023-07-13T04:54:58;2.37;;;1.60;;
9737;SDS011;4908;47.446;13.900;2023-07-13T04:57:25;4.43;;;1.63;;
9737;SDS011;4908;47.446;13.900;2023-07-13T04:59:53;1.40;;;1.40;;
9737;SDS011;4908;47.446;13.900;2023-07-13T05:02:20;3.93;;;1.67;;
9737;SDS011;4908;47.446;13.900;2023-07-13T05:04:48;1.53;;;1.43;;
9737;SDS011;4908;47.446;13.900;2023-07-13T05:07:15;1.20;;;1.20;;
9737;SDS011;4908;47.446;13.900;2023-07-13T05:09:42;1.07;;;1.07;;
9737;SDS011;4908;47.446;13.900;2023-07-13T05:12:09;1.57;;;1.47;;
9737;SDS011;4908;47.446;13.900;2023-07-13T05:14:36;1.20;;;1.20;;
9737;SDS011;4908;47.446;13.900;2023-07-13T05:17:03;1.17;;;1.17;;
9737;SDS011;4908;47.446;13.900;2023-07-13T05:19:30;2.30;;;1.30;;
9737;SDS011;4908;47.446;13.900;2023-07-13T05:21:58;1.20;;;1.20;;
9737;SDS011;4908;47.446;13.900;2023-07-13T05:24:25;1.50;;;1.40;;
9737;SDS011;4908;47.446;13.900;2023-07-13T05:26:53;2.40;;;1.20;;
9737;SDS011;4908;47.446;13.900;2023-07-13T05:29:19;1.50;;;1.40;;
9737;SDS011;4908;47.446;13.900;2023-07-13T05:31:47;1.83;;;1.40;;
9737;SDS011;4908;47.446;13.900;2023-07-13T05:34:14;1.63;;;1.40;;
9737;SDS011;4908;47.446;13.900;2023-07-13T05:36:41;1.50;;;1.40;;
9737;SDS011;4908;47.446;13.900;2023-07-13T05:39:09;1.40;;;1.30;;
9737;SDS011;4908;47.446;13.900;2023-07-13T05:41:36;1.67;;;1.20;;
9737;SDS011;4908;47.446;13.900;2023-07-13T05:44:03;1.23;;;1.17;;
9737;SDS011;4908;47.446;13.900;2023-07-13T05:46:30;1.30;;;1.17;;
9737;SDS011;4908;47.446;13.900;2023-07-13T05:48:57;1.37;;;1.27;;
9737;SDS011;4908;47.446;13.900;2023-07-13T05:51:24;1.30;;;1.23;;
9737;SDS011;4908;47.446;13.900;2023-07-13T05:53:51;1.30;;;1.30;;
9737;SDS011;4908;47.446;13.900;2023-07-13T05:56:19;2.43;;;1.40;;
9737;SDS011;4908;47.446;13.900;2023-07-13T05:58:47;1.70;;;1.60;;
9737;SDS011;4908;47.446;13.900;2023-07-13T06:01:14;1.60;;;1.50;;
9737;SDS011;4908;47.446;13.900;2023-07-13T06:03:42;2.00;;;1.90;;
9737;SDS011;4908;47.446;13.900;2023-07-13T06:06:09;1.73;;;1.63;;
9737;SDS011;4908;47.446;13.900;2023-07-13T06:08:37;1.50;;;1.50;;
9737;SDS011;4908;47.446;13.900;2023-07-13T06:11:04;1.40;;;1.40;;
9737;SDS011;4908;47.446;13.900;2023-07-13T06:13:33;1.20;;;1.10;;
9737;SDS011;4908;47.446;13.900;2023-07-13T06:16:01;1.63;;;1.20;;
9737;SDS011;4908;47.446;13.900;2023-07-13T06:18:30;1.20;;;1.20;;
9737;SDS011;4908;47.446;13.900;2023-07-13T06:20:57;1.50;;;1.40;;
9737;SDS011;4908;47.446;13.900;2023-07-13T06:23:24;1.20;;;1.20;;
9737;SDS011;4908;47.446;13.900;2023-07-13T06:25:51;1.40;;;1.40;;
9737;SDS011;4908;47.446;13.900;2023-07-13T06:28:18;2.20;;;1.30;;
9737;SDS011;4908;47.446;13.900;2023-07-13T06:30:46;1.30;;;1.20;;
9737;SDS011;4908;47.446;13.900;2023-07-13T06:33:13;1.27;;;1.23;;
9737;SDS011;4908;47.446;13.900;2023-07-13T06:35:40;1.43;;;1.10;;
9737;SDS011;4908;47.446;13.900;2023-07-13T06:38:07;1.43;;;1.30;;
9737;SDS011;4908;47.446;13.900;2023-07-13T06:40:33;0.87;;;0.87;;
9737;SDS011;4908;47.446;13.900;2023-07-13T06:43:00;1.00;;;1.00;;
9737;SDS011;4908;47.446;13.900;2023-07-13T06:45:27;1.00;;;1.00;;
9737;SDS011;4908;47.446;13.900;2023-07-13T06:47:55;0.80;;;0.80;;
9737;SDS011;4908;47.446;13.900;2023-07-13T06:50:22;1.37;;;1.23;;
9737;SDS011;4908;47.446;13.900;2023-07-13T06:52:49;1.60;;;1.00;;
9737;SDS011;4908;47.446;13.900;2023-07-13T06:55:16;1.90;;;1.40;;
9737;SDS011;4908;47.446;13.900;2023-07-13T06:57:43;6.47;;;1.40;;
9737;SDS011;4908;47.446;13.900;2023-07-13T07:00:10;2.73;;;1.33;;
9737;SDS011;4908;47.446;13.900;2023-07-13T07:02:38;1.10;;;1.10;;
9737;SDS011;4908;47.446;13.900;2023-07-13T07:05:06;2.57;;;1.47;;
9737;SDS011;4908;47.446;13.900;2023-07-13T07:07:33;1.60;;;1.50;;
9737;SDS011;4908;47.446;13.900;2023-07-13T07:10:00;1.00;;;1.00;;
9737;SDS011;4908;47.446;13.900;2023-07-13T07:12:28;1.63;;;1.53;;
9737;SDS011;4908;47.446;13.900;2023-07-13T07:14:55;1.77;;;1.50;;
9737;SDS011;4908;47.446;13.900;2023-07-13T07:17:22;1.60;;;1.30;;
9737;SDS011;4908;47.446;13.900;2023-07-13T07:19:50;1.13;;;1.13;;
9737;SDS011;4908;47.446;13.900;2023-07-13T07:22:20;1.10;;;1.10;;
9737;SDS011;4908;47.446;13.900;2023-07-13T07:24:47;3.60;;;1.43;;
9737;SDS011;4908;47.446;13.900;2023-07-13T07:27:14;1.20;;;1.20;;
9737;SDS011;4908;47.446;13.900;2023-07-13T07:29:41;1.30;;;1.30;;
9737;SDS011;4908;47.446;13.900;2023-07-13T07:32:08;2.37;;;1.20;;
9737;SDS011;4908;47.446;13.900;2023-07-13T07:34:34;1.20;;;1.20;;
9737;SDS011;4908;47.446;13.900;2023-07-13T07:37:02;0.90;;;0.90;;
9737;SDS011;4908;47.446;13.900;2023-07-13T07:39:30;1.80;;;0.90;;
9737;SDS011;4908;47.446;13.900;2023-07-13T07:41:57;0.90;;;0.90;;
9737;SDS011;4908;47.446;13.900;2023-07-13T07:44:24;2.27;;;1.20;;
9737;SDS011;4908;47.446;13.900;2023-07-13T07:46:52;1.50;;;1.40;;
9737;SDS011;4908;47.446;13.900;2023-07-13T07:49:19;0.77;;;0.77;;
9737;SDS011;4908;47.446;13.900;2023-07-13T07:51:46;1.83;;;1.00;;
9737;SDS011;4908;47.446;13.900;2023-07-13T07:54:13;2.87;;;1.20;;
9737;SDS011;4908;47.446;13.900;2023-07-13T07:56:41;0.90;;;0.90;;
9737;SDS011;4908;47.446;13.900;2023-07-13T07:59:08;1.07;;;0.80;;
9737;SDS011;4908;47.446;13.900;2023-07-13T08:01:35;1.83;;;1.07;;
9737;SDS011;4908;47.446;13.900;2023-07-13T08:04:02;1.70;;;0.90;;
9737;SDS011;4908;47.446;13.900;2023-07-13T08:06:31;0.93;;;0.93;;
9737;SDS011;4908;47.446;13.900;2023-07-13T08:08:58;0.80;;;0.80;;
9737;SDS011;4908;47.446;13.900;2023-07-13T08:11:26;1.53;;;0.90;;
9737;SDS011;4908;47.446;13.900;2023-07-13T08:13:54;1.10;;;1.00;;
9737;SDS011;4908;47.446;13.900;2023-07-13T08:16:21;0.90;;;0.90;;
9737;SDS011;4908;47.446;13.900;2023-07-13T08:18:49;2.30;;;1.00;;
9737;SDS011;4908;47.446;13.900;2023-07-13T08:21:17;1.33;;;0.80;;
9737;SDS011;4908;47.446;13.900;2023-07-13T08:23:45;1.10;;;0.97;;
9737;SDS011;4908;47.446;13.900;2023-07-13T08:26:11;1.30;;;1.10;;
9737;SDS011;4908;47.446;13.900;2023-07-13T08:28:38;0.97;;;0.90;;
9737;SDS011;4908;47.446;13.900;2023-07-13T08:31:07;1.80;;;1.00;;
9737;SDS011;4908;47.446;13.900;2023-07-13T08:33:34;2.97;;;0.93;;
9737;SDS011;4908;47.446;13.900;2023-07-13T08:36:03;0.90;;;0.90;;
9737;SDS011;4908;47.446;13.900;2023-07-13T08:38:31;0.90;;;0.90;;
9737;SDS011;4908;47.446;13.900;2023-07-13T08:40:58;0.83;;;0.83;;
9737;SDS011;4908;47.446;13.900;2023-07-13T08:43:25;1.40;;;1.23;;
9737;SDS011;4908;47.446;13.900;2023-07-13T08:45:57;2.33;;;1.10;;
9737;SDS011;4908;47.446;13.900;2023-07-13T08:48:30;1.70;;;1.00;;
9737;SDS011;4908;47.446;13.900;2023-07-13T08:51:02;2.20;;;0.73;;
9737;SDS011;4908;47.446;13.900;2023-07-13T08:53:37;0.73;;;0.73;;
9737;SDS011;4908;47.446;13.900;2023-07-13T08:56:09;2.43;;;1.00;;
9737;SDS011;4908;47.446;13.900;2023-07-13T08:58:43;1.03;;;0.73;;
9737;SDS011;4908;47.446;13.900;2023-07-13T09:01:12;0.60;;;0.60;;
9737;SDS011;4908;47.446;13.900;2023-07-13T09:03:49;0.80;;;0.80;;
9737;SDS011;4908;47.446;13.900;2023-07-13T09:06:27;3.03;;;1.17;;
9737;SDS011;4908;47.446;13.900;2023-07-13T09:08:58;1.13;;;0.90;;
9737;SDS011;4908;47.446;13.900;2023-07-13T09:11:36;0.90;;;0.90;;
9737;SDS011;4908;47.446;13.900;2023-07-13T09:14:29;0.97;;;0.97;;
9737;SDS011;4908;47.446;13.900;2023-07-13T09:17:03;1.13;;;1.00;;
9737;SDS011;4908;47.446;13.900;2023-07-13T09:19:36;1.07;;;0.80;;
9737;SDS011;4908;47.446;13.900;2023-07-13T09:22:03;0.73;;;0.73;;
9737;SDS011;4908;47.446;13.900;2023-07-13T09:24:38;1.10;;;0.90;;
9737;SDS011;4908;47.446;13.900;2023-07-13T09:27:17;0.90;;;0.90;;
9737;SDS011;4908;47.446;13.900;2023-07-13T09:29:48;1.83;;;1.70;;
9737;SDS011;4908;47.446;13.900;2023-07-13T09:32:21;2.20;;;1.00;;
9737;SDS011;4908;47.446;13.900;2023-07-13T09:34:52;1.10;;;0.97;;
9737;SDS011;4908;47.446;13.900;2023-07-13T09:37:20;0.90;;;0.90;;
9737;SDS011;4908;47.446;13.900;2023-07-13T09:39:49;1.13;;;1.03;;
9737;SDS011;4908;47.446;13.900;2023-07-13T09:42:18;2.67;;;0.90;;
9737;SDS011;4908;47.446;13.900;2023-07-13T09:44:51;2.50;;;1.00;;
9737;SDS011;4908;47.446;13.900;2023-07-13T09:47:20;1.23;;;1.00;;
9737;SDS011;4908;47.446;13.900;2023-07-13T09:49:53;1.00;;;1.00;;
9737;SDS011;4908;47.446;13.900;2023-07-13T09:52:23;0.70;;;0.70;;
9737;SDS011;4908;47.446;13.900;2023-07-13T09:54:51;0.87;;;0.87;;
9737;SDS011;4908;47.446;13.900;2023-07-13T09:57:24;1.00;;;1.00;;
9737;SDS011;4908;47.446;13.900;2023-07-13T09:59:53;1.83;;;1.10;;
9737;SDS011;4908;47.446;13.900;2023-07-13T10:02:25;1.43;;;1.43;;
9737;SDS011;4908;47.446;13.900;2023-07-13T10:04:59;1.30;;;1.20;;
9737;SDS011;4908;47.446;13.900;2023-07-13T10:07:30;1.03;;;0.90;;
9737;SDS011;4908;47.446;13.900;2023-07-13T10:09:58;1.03;;;1.03;;
9737;SDS011;4908;47.446;13.900;2023-07-13T10:12:28;1.30;;;0.93;;
9737;SDS011;4908;47.446;13.900;2023-07-13T10:14:56;0.90;;;0.90;;
9737;SDS011;4908;47.446;13.900;2023-07-13T10:17:26;0.83;;;0.83;;
9737;SDS011;4908;47.446;13.900;2023-07-13T10:19:59;2.97;;;1.20;;
9737;SDS011;4908;47.446;13.900;2023-07-13T10:22:31;1.10;;;1.10;;
9737;SDS011;4908;47.446;13.900;2023-07-13T10:25:10;0.80;;;0.80;;
9737;SDS011;4908;47.446;13.900;2023-07-13T10:27:42;1.03;;;1.03;;
9737;SDS011;4908;47.446;13.900;2023-07-13T10:30:11;1.00;;;1.00;;
9737;SDS011;4908;47.446;13.900;2023-07-13T10:32:42;0.97;;;0.93;;
9737;SDS011;4908;47.446;13.900;2023-07-13T10:35:11;1.40;;;1.30;;
9737;SDS011;4908;47.446;13.900;2023-07-13T10:37:42;1.20;;;1.20;;
9737;SDS011;4908;47.446;13.900;2023-07-13T10:40:16;1.10;;;1.10;;
9737;SDS011;4908;47.446;13.900;2023-07-13T10:42:49;2.53;;;1.40;;
9737;SDS011;4908;47.446;13.900;2023-07-13T10:45:19;2.43;;;1.40;;
9737;SDS011;4908;47.446;13.900;2023-07-13T10:47:47;1.40;;;1.30;;
9737;SDS011;4908;47.446;13.900;2023-07-13T10:50:20;1.23;;;1.00;;
9737;SDS011;4908;47.446;13.900;2023-07-13T10:52:50;1.10;;;1.10;;
9737;SDS011;4908;47.446;13.900;2023-07-13T10:55:36;1.30;;;1.30;;
9737;SDS011;4908;47.446;13.900;2023-07-13T10:58:11;1.37;;;1.37;;
9737;SDS011;4908;47.446;13.900;2023-07-13T11:00:44;1.00;;;1.00;;
9737;SDS011;4908;47.446;13.900;2023-07-13T11:03:15;1.50;;;1.40;;
9737;SDS011;4908;47.446;13.900;2023-07-13T11:05:49;1.37;;;1.10;;
9737;SDS011;4908;47.446;13.900;2023-07-13T11:08:19;0.90;;;0.90;;
9737;SDS011;4908;47.446;13.900;2023-07-13T11:10:58;3.70;;;1.30;;
9737;SDS011;4908;47.446;13.900;2023-07-13T11:13:38;0.90;;;0.90;;
9737;SDS011;4908;47.446;13.900;2023-07-13T11:16:36;2.03;;;0.83;;
9737;SDS011;4908;47.446;13.900;2023-07-13T11:19:27;0.90;;;0.90;;
9737;SDS011;4908;47.446;13.900;2023-07-13T11:25:26;2.00;;;1.30;;
9737;SDS011;4908;47.446;13.900;2023-07-13T11:28:05;1.73;;;1.10;;
9737;SDS011;4908;47.446;13.900;2023-07-13T11:30:49;1.00;;;1.00;;
9737;SDS011;4908;47.446;13.900;2023-07-13T11:33:45;1.90;;;1.20;;
9737;SDS011;4908;47.446;13.900;2023-07-13T11:36:23;1.13;;;1.13;;
9737;SDS011;4908;47.446;13.900;2023-07-13T11:38:59;0.80;;;0.80;;
9737;SDS011;4908;47.446;13.900;2023-07-13T11:41:33;1.10;;;1.10;;
9737;SDS011;4908;47.446;13.900;2023-07-13T11:44:07;1.20;;;1.20;;
9737;SDS011;4908;47.446;13.900;2023-07-13T11:46:43;1.40;;;1.30;;
9737;SDS011;4908;47.446;13.900;2023-07-13T11:49:13;1.90;;;1.30;;
9737;SDS011;4908;47.446;13.900;2023-07-13T11:51:41;2.13;;;1.20;;
9737;SDS011;4908;47.446;13.900;2023-07-13T11:54:14;1.40;;;1.30;;
9737;SDS011;4908;47.446;13.900;2023-07-13T11:56:48;2.40;;;1.30;;
9737;SDS011;4908;47.446;13.900;2023-07-13T11:59:16;1.50;;;1.23;;
9737;SDS011;4908;47.446;13.900;2023-07-13T12:01:45;1.33;;;1.20;;
9737;SDS011;4908;47.446;13.900;2023-07-13T12:04:19;1.10;;;1.10;;
9737;SDS011;4908;47.446;13.900;2023-07-13T12:06:53;1.13;;;1.13;;
9737;SDS011;4908;47.446;13.900;2023-07-13T12:09:25;1.30;;;1.20;;
9737;SDS011;4908;47.446;13.900;2023-07-13T12:11:53;1.23;;;1.23;;
9737;SDS011;4908;47.446;13.900;2023-07-13T12:14:20;1.33;;;1.23;;
9737;SDS011;4908;47.446;13.900;2023-07-13T12:16:50;1.40;;;1.40;;
9737;SDS011;4908;47.446;13.900;2023-07-13T12:19:18;1.60;;;1.20;;
9737;SDS011;4908;47.446;13.900;2023-07-13T12:21:48;1.13;;;1.10;;
9737;SDS011;4908;47.446;13.900;2023-07-13T12:24:17;1.37;;;1.27;;
9737;SDS011;4908;47.446;13.900;2023-07-13T12:26:51;1.30;;;1.20;;
9737;SDS011;4908;47.446;13.900;2023-07-13T12:29:19;0.80;;;0.80;;
9737;SDS011;4908;47.446;13.900;2023-07-13T12:31:47;1.10;;;1.10;;
9737;SDS011;4908;47.446;13.900;2023-07-13T12:34:17;0.77;;;0.77;;
9737;SDS011;4908;47.446;13.900;2023-07-13T12:36:46;1.33;;;0.90;;
9737;SDS011;4908;47.446;13.900;2023-07-13T12:39:16;1.10;;;1.10;;
9737;SDS011;4908;47.446;13.900;2023-07-13T12:41:46;1.00;;;1.00;;
9737;SDS011;4908;47.446;13.900;2023-07-13T12:44:17;0.90;;;0.90;;
9737;SDS011;4908;47.446;13.900;2023-07-13T12:46:55;0.90;;;0.90;;
9737;SDS011;4908;47.446;13.900;2023-07-13T12:49:26;0.90;;;0.90;;
9737;SDS011;4908;47.446;13.900;2023-07-13T12:51:58;1.20;;;1.07;;
9737;SDS011;4908;47.446;13.900;2023-07-13T12:54:26;1.10;;;1.00;;
9737;SDS011;4908;47.446;13.900;2023-07-13T12:56:54;1.10;;;1.10;;
9737;SDS011;4908;47.446;13.900;2023-07-13T12:59:27;1.40;;;1.30;;
9737;SDS011;4908;47.446;13.900;2023-07-13T13:01:58;1.03;;;1.03;;
9737;SDS011;4908;47.446;13.900;2023-07-13T13:04:25;1.00;;;1.00;;
9737;SDS011;4908;47.446;13.900;2023-07-13T13:07:00;1.00;;;1.00;;
9737;SDS011;4908;47.446;13.900;2023-07-13T13:09:29;1.13;;;1.10;;
9737;SDS011;4908;47.446;13.900;2023-07-13T13:11:55;1.20;;;1.20;;
9737;SDS011;4908;47.446;13.900;2023-07-13T13:14:24;1.43;;;1.10;;
9737;SDS011;4908;47.446;13.900;2023-07-13T13:16:51;1.27;;;1.23;;
9737;SDS011;4908;47.446;13.900;2023-07-13T13:19:20;1.70;;;1.10;;
9737;SDS011;4908;47.446;13.900;2023-07-13T13:21:49;1.23;;;1.20;;
9737;SDS011;4908;47.446;13.900;2023-07-13T13:24:18;1.00;;;1.00;;
9737;SDS011;4908;47.446;13.900;2023-07-13T13:26:46;2.50;;;1.60;;
9737;SDS011;4908;47.446;13.900;2023-07-13T13:29:15;1.93;;;1.70;;
9737;SDS011;4908;47.446;13.900;2023-07-13T13:31:45;1.90;;;1.30;;
9737;SDS011;4908;47.446;13.900;2023-07-13T13:34:12;1.30;;;1.27;;
9737;SDS011;4908;47.446;13.900;2023-07-13T13:36:41;1.30;;;1.20;;
9737;SDS011;4908;47.446;13.900;2023-07-13T13:39:18;1.57;;;1.17;;
9737;SDS011;4908;47.446;13.900;2023-07-13T13:41:47;1.10;;;1.03;;
9737;SDS011;4908;47.446;13.900;2023-07-13T13:44:15;1.03;;;1.03;;
9737;SDS011;4908;47.446;13.900;2023-07-13T13:46:42;1.67;;;1.57;;
9737;SDS011;4908;47.446;13.900;2023-07-13T13:49:15;1.40;;;1.30;;
9737;SDS011;4908;47.446;13.900;2023-07-13T13:51:43;1.60;;;1.50;;
9737;SDS011;4908;47.446;13.900;2023-07-13T13:54:11;1.10;;;1.10;;
9737;SDS011;4908;47.446;13.900;2023-07-13T13:56:39;1.10;;;1.10;;
9737;SDS011;4908;47.446;13.900;2023-07-13T13:59:07;1.00;;;1.00;;
9737;SDS011;4908;47.446;13.900;2023-07-13T14:01:35;1.00;;;1.00;;
9737;SDS011;4908;47.446;13.900;2023-07-13T14:04:04;1.20;;;1.20;;
9737;SDS011;4908;47.446;13.900;2023-07-13T14:06:32;1.30;;;1.20;;
9737;SDS011;4908;47.446;13.900;2023-07-13T14:08:59;1.53;;;1.53;;
9737;SDS011;4908;47.446;13.900;2023-07-13T14:11:27;1.87;;;1.50;;
9737;SDS011;4908;47.446;13.900;2023-07-13T14:13:56;1.10;;;1.10;;
9737;SDS011;4908;47.446;13.900;2023-07-13T14:16:26;1.50;;;1.50;;
9737;SDS011;4908;47.446;13.900;2023-07-13T14:18:57;1.30;;;1.30;;
9737;SDS011;4908;47.446;13.900;2023-07-13T14:21:27;1.53;;;1.43;;
9737;SDS011;4908;47.446;13.900;2023-07-13T14:23:55;1.50;;;1.40;;
9737;SDS011;4908;47.446;13.900;2023-07-13T14:26:22;1.47;;;1.47;;
9737;SDS011;4908;47.446;13.900;2023-07-13T14:28:52;1.80;;;1.70;;
9737;SDS011;4908;47.446;13.900;2023-07-13T14:31:21;2.23;;;1.83;;
9737;SDS011;4908;47.446;13.900;2023-07-13T14:33:49;1.60;;;1.50;;
9737;SDS011;4908;47.446;13.900;2023-07-13T14:36:21;1.63;;;1.53;;
9737;SDS011;4908;47.446;13.900;2023-07-13T14:38:53;1.40;;;1.30;;
9737;SDS011;4908;47.446;13.900;2023-07-13T14:41:20;1.83;;;1.40;;
9737;SDS011;4908;47.446;13.900;2023-07-13T14:43:47;1.30;;;1.20;;
9737;SDS011;4908;47.446;13.900;2023-07-13T14:46:27;1.30;;;1.30;;
9737;SDS011;4908;47.446;13.900;2023-07-13T14:48:59;1.20;;;1.20;;
9737;SDS011;4908;47.446;13.900;2023-07-13T14:51:29;1.37;;;1.33;;
9737;SDS011;4908;47.446;13.900;2023-07-13T14:53:58;1.40;;;1.40;;
9737;SDS011;4908;47.446;13.900;2023-07-13T14:56:27;1.80;;;1.57;;
9737;SDS011;4908;47.446;13.900;2023-07-13T14:58:54;1.93;;;1.63;;
9737;SDS011;4908;47.446;13.900;2023-07-13T15:01:21;2.30;;;2.20;;
9737;SDS011;4908;47.446;13.900;2023-07-13T15:03:49;1.73;;;1.73;;
9737;SDS011;4908;47.446;13.900;2023-07-13T15:06:18;1.87;;;1.77;;
9737;SDS011;4908;47.446;13.900;2023-07-13T15:08:46;2.03;;;1.93;;
9737;SDS011;4908;47.446;13.900;2023-07-13T15:11:15;1.93;;;1.73;;
9737;SDS011;4908;47.446;13.900;2023-07-13T15:13:42;2.47;;;2.27;;
9737;SDS011;4908;47.446;13.900;2023-07-13T15:16:21;3.47;;;2.00;;